sensor_id;sensor_type;location;lat;lon;timestamp;temperature;humidity
48007;DHT22;33771;48.180;11.400;2023-04-25T00:02:24;6.80;99.90
48007;DHT22;33771;48.180;11.400;2023-04-25T00:04:50;6.80;99.90
48007;DHT22;33771;48.180;11.400;2023-04-25T00:07:15;6.80;99.90
48007;DHT22;33771;48.180;11.400;2023-04-25T00:09:42;6.80;99.90
48007;DHT22;33771;48.180;11.400;2023-04-25T00:12:07;6.80;99.90
48007;DHT22;33771;48.180;11.400;2023-04-25T00:14:33;6.90;99.90
48007;DHT22;33771;48.180;11.400;2023-04-25T00:16:59;6.90;99.90
48007;DHT22;33771;48.180;11.400;2023-04-25T00:19:25;6.90;99.90
48007;DHT22;33771;48.180;11.400;2023-04-25T00:21:56;6.90;99.90
48007;DHT22;33771;48.180;11.400;2023-04-25T00:24:22;6.90;99.90
48007;DHT22;33771;48.180;11.400;2023-04-25T00:26:48;6.90;99.90
48007;DHT22;33771;48.180;11.400;2023-04-25T00:29:14;7.00;99.90
48007;DHT22;33771;48.180;11.400;2023-04-25T00:31:39;7.00;99.90
48007;DHT22;33771;48.180;11.400;2023-04-25T00:34:06;7.00;99.90
48007;DHT22;33771;48.180;11.400;2023-04-25T00:36:33;7.00;99.90
48007;DHT22;33771;48.180;11.400;2023-04-25T00:38:58;7.00;99.90
48007;DHT22;33771;48.180;11.400;2023-04-25T00:41:26;7.00;99.90
48007;DHT22;33771;48.180;11.400;2023-04-25T00:43:52;6.90;99.90
48007;DHT22;33771;48.180;11.400;2023-04-25T00:46:18;6.90;99.90
48007;DHT22;33771;48.180;11.400;2023-04-25T00:48:44;6.90;99.90
48007;DHT22;33771;48.180;11.400;2023-04-25T00:51:12;6.80;99.90
48007;DHT22;33771;48.180;11.400;2023-04-25T00:53:39;6.80;99.90
48007;DHT22;33771;48.180;11.400;2023-04-25T00:56:05;6.70;99.90
48007;DHT22;33771;48.180;11.400;2023-04-25T00:58:31;6.70;99.90
48007;DHT22;33771;48.180;11.400;2023-04-25T01:00:57;6.60;99.90
48007;DHT22;33771;48.180;11.400;2023-04-25T01:03:23;6.60;99.90
48007;DHT22;33771;48.180;11.400;2023-04-25T01:05:50;6.50;99.90
48007;DHT22;33771;48.180;11.400;2023-04-25T01:08:16;6.50;99.90
48007;DHT22;33771;48.180;11.400;2023-04-25T01:10:41;6.50;99.90
48007;DHT22;33771;48.180;11.400;2023-04-25T01:13:07;6.40;99.90
48007;DHT22;33771;48.180;11.400;2023-04-25T01:15:33;6.40;99.90
48007;DHT22;33771;48.180;11.400;2023-04-25T01:18:00;6.40;99.90
48007;DHT22;33771;48.180;11.400;2023-04-25T01:20:28;6.30;99.90
48007;DHT22;33771;48.180;11.400;2023-04-25T01:22:55;6.30;99.90
48007;DHT22;33771;48.180;11.400;2023-04-25T01:25:22;6.20;99.90
48007;DHT22;33771;48.180;11.400;2023-04-25T01:27:47;6.20;99.90
48007;DHT22;33771;48.180;11.400;2023-04-25T01:30:14;6.10;99.90
48007;DHT22;33771;48.180;11.400;2023-04-25T01:32:41;6.10;99.90
48007;DHT22;33771;48.180;11.400;2023-04-25T01:35:11;6.10;99.90
48007;DHT22;33771;48.180;11.400;2023-04-25T01:37:41;6.10;99.90
48007;DHT22;33771;48.180;11.400;2023-04-25T01:40:08;6.00;99.90
48007;DHT22;33771;48.180;11.400;2023-04-25T01:42:39;6.00;99.90
48007;DHT22;33771;48.180;11.400;2023-04-25T01:45:06;5.90;99.90
48007;DHT22;33771;48.180;11.400;2023-04-25T01:47:32;5.90;99.90
48007;DHT22;33771;48.180;11.400;2023-04-25T01:49:58;5.90;99.90
48007;DHT22;33771;48.180;11.400;2023-04-25T01:52:23;5.80;99.90
48007;DHT22;33771;48.180;11.400;2023-04-25T01:54:49;5.80;99.90
48007;DHT22;33771;48.180;11.400;2023-04-25T01:57:16;5.70;99.90
48007;DHT22;33771;48.180;11.400;2023-04-25T01:59:42;5.70;99.90
48007;DHT22;33771;48.180;11.400;2023-04-25T02:02:08;5.70;99.90
48007;DHT22;33771;48.180;11.400;2023-04-25T02:04:33;5.70;99.90
48007;DHT22;33771;48.180;11.400;2023-04-25T02:06:59;5.70;99.90
48007;DHT22;33771;48.180;11.400;2023-04-25T02:09:24;5.70;99.90
48007;DHT22;33771;48.180;11.400;2023-04-25T02:11:50;5.70;99.90
48007;DHT22;33771;48.180;11.400;2023-04-25T02:14:16;5.60;99.90
48007;DHT22;33771;48.180;11.400;2023-04-25T02:16:41;5.70;99.90
48007;DHT22;33771;48.180;11.400;2023-04-25T02:19:09;5.60;99.90
48007;DHT22;33771;48.180;11.400;2023-04-25T02:21:35;5.70;99.90
48007;DHT22;33771;48.180;11.400;2023-04-25T02:24:01;5.70;99.90
48007;DHT22;33771;48.180;11.400;2023-04-25T02:26:27;5.70;99.90
48007;DHT22;33771;48.180;11.400;2023-04-25T02:28:52;5.80;99.90
48007;DHT22;33771;48.180;11.400;2023-04-25T02:31:18;5.80;99.90
48007;DHT22;33771;48.180;11.400;2023-04-25T02:33:44;5.90;99.90
48007;DHT22;33771;48.180;11.400;2023-04-25T02:36:10;5.90;99.90
48007;DHT22;33771;48.180;11.400;2023-04-25T02:38:35;5.90;99.90
48007;DHT22;33771;48.180;11.400;2023-04-25T02:41:01;5.90;99.90
48007;DHT22;33771;48.180;11.400;2023-04-25T02:43:26;5.90;99.90
48007;DHT22;33771;48.180;11.400;2023-04-25T02:45:52;5.90;99.90
48007;DHT22;33771;48.180;11.400;2023-04-25T02:48:17;5.90;99.90
48007;DHT22;33771;48.180;11.400;2023-04-25T02:50:43;6.00;99.90
48007;DHT22;33771;48.180;11.400;2023-04-25T02:53:09;5.90;99.90
48007;DHT22;33771;48.180;11.400;2023-04-25T02:55:34;6.00;99.90
48007;DHT22;33771;48.180;11.400;2023-04-25T02:58:00;6.00;99.90
48007;DHT22;33771;48.180;11.400;2023-04-25T03:00:25;6.00;99.90
48007;DHT22;33771;48.180;11.400;2023-04-25T03:02:51;6.00;99.90
48007;DHT22;33771;48.180;11.400;2023-04-25T03:05:17;6.00;99.90
48007;DHT22;33771;48.180;11.400;2023-04-25T03:07:43;6.20;99.90
48007;DHT22;33771;48.180;11.400;2023-04-25T03:10:10;6.20;99.90
48007;DHT22;33771;48.180;11.400;2023-04-25T03:12:36;6.30;99.90
48007;DHT22;33771;48.180;11.400;2023-04-25T03:15:02;6.40;99.90
48007;DHT22;33771;48.180;11.400;2023-04-25T03:17:27;6.40;99.90
48007;DHT22;33771;48.180;11.400;2023-04-25T03:19:53;6.40;99.90
48007;DHT22;33771;48.180;11.400;2023-04-25T03:22:19;6.40;99.90
48007;DHT22;33771;48.180;11.400;2023-04-25T03:24:44;6.40;99.90
48007;DHT22;33771;48.180;11.400;2023-04-25T03:27:10;6.30;99.90
48007;DHT22;33771;48.180;11.400;2023-04-25T03:29:35;6.30;99.90
48007;DHT22;33771;48.180;11.400;2023-04-25T03:32:01;6.30;99.90
48007;DHT22;33771;48.180;11.400;2023-04-25T03:34:27;6.20;99.90
48007;DHT22;33771;48.180;11.400;2023-04-25T03:36:53;6.20;99.90
48007;DHT22;33771;48.180;11.400;2023-04-25T03:39:18;6.10;99.90
48007;DHT22;33771;48.180;11.400;2023-04-25T03:41:44;6.10;99.90
48007;DHT22;33771;48.180;11.400;2023-04-25T03:44:09;6.00;99.90
48007;DHT22;33771;48.180;11.400;2023-04-25T03:46:35;6.10;99.90
48007;DHT22;33771;48.180;11.400;2023-04-25T03:49:00;6.00;99.90
48007;DHT22;33771;48.180;11.400;2023-04-25T03:51:26;6.00;99.90
48007;DHT22;33771;48.180;11.400;2023-04-25T03:53:52;6.00;99.90
48007;DHT22;33771;48.180;11.400;2023-04-25T03:56:18;6.00;99.90
48007;DHT22;33771;48.180;11.400;2023-04-25T03:58:43;6.00;99.90
48007;DHT22;33771;48.180;11.400;2023-04-25T04:01:09;6.00;99.90
48007;DHT22;33771;48.180;11.400;2023-04-25T04:03:36;6.00;99.90
48007;DHT22;33771;48.180;11.400;2023-04-25T04:06:05;6.00;99.90
48007;DHT22;33771;48.180;11.400;2023-04-25T04:08:32;6.00;99.90
48007;DHT22;33771;48.180;11.400;2023-04-25T04:10:58;6.00;99.90
48007;DHT22;33771;48.180;11.400;2023-04-25T04:13:26;6.00;99.90
48007;DHT22;33771;48.180;11.400;2023-04-25T04:15:51;6.00;99.90
48007;DHT22;33771;48.180;11.400;2023-04-25T04:18:17;6.00;99.90
48007;DHT22;33771;48.180;11.400;2023-04-25T04:20:43;6.00;99.90
48007;DHT22;33771;48.180;11.400;2023-04-25T04:23:08;6.00;99.90
48007;DHT22;33771;48.180;11.400;2023-04-25T04:25:34;6.00;99.90
48007;DHT22;33771;48.180;11.400;2023-04-25T04:27:59;6.00;99.90
48007;DHT22;33771;48.180;11.400;2023-04-25T04:30:26;6.10;99.90
48007;DHT22;33771;48.180;11.400;2023-04-25T04:32:55;6.10;99.90
48007;DHT22;33771;48.180;11.400;2023-04-25T04:35:21;6.10;99.90
48007;DHT22;33771;48.180;11.400;2023-04-25T04:37:47;6.10;99.90
48007;DHT22;33771;48.180;11.400;2023-04-25T04:40:14;6.10;99.90
48007;DHT22;33771;48.180;11.400;2023-04-25T04:42:43;6.10;99.90
48007;DHT22;33771;48.180;11.400;2023-04-25T04:45:11;6.20;99.90
48007;DHT22;33771;48.180;11.400;2023-04-25T04:47:37;6.20;99.90
48007;DHT22;33771;48.180;11.400;2023-04-25T04:50:06;6.20;99.90
48007;DHT22;33771;48.180;11.400;2023-04-25T04:52:34;6.20;99.90
48007;DHT22;33771;48.180;11.400;2023-04-25T04:54:59;6.20;99.90
48007;DHT22;33771;48.180;11.400;2023-04-25T04:57:25;6.20;99.90
48007;DHT22;33771;48.180;11.400;2023-04-25T04:59:51;6.20;99.90
48007;DHT22;33771;48.180;11.400;2023-04-25T05:02:16;6.20;99.90
48007;DHT22;33771;48.180;11.400;2023-04-25T05:04:42;6.20;99.90
48007;DHT22;33771;48.180;11.400;2023-04-25T05:07:07;6.30;99.90
48007;DHT22;33771;48.180;11.400;2023-04-25T05:09:34;6.30;99.90
48007;DHT22;33771;48.180;11.400;2023-04-25T05:12:00;6.30;99.90
48007;DHT22;33771;48.180;11.400;2023-04-25T05:14:26;6.30;99.90
48007;DHT22;33771;48.180;11.400;2023-04-25T05:16:52;6.30;99.90
48007;DHT22;33771;48.180;11.400;2023-04-25T05:19:17;6.30;99.90
48007;DHT22;33771;48.180;11.400;2023-04-25T05:21:43;6.30;99.90
48007;DHT22;33771;48.180;11.400;2023-04-25T05:24:09;6.30;99.90
48007;DHT22;33771;48.180;11.400;2023-04-25T05:26:34;6.30;99.90
48007;DHT22;33771;48.180;11.400;2023-04-25T05:29:00;6.30;99.90
48007;DHT22;33771;48.180;11.400;2023-04-25T05:31:26;6.30;99.90
48007;DHT22;33771;48.180;11.400;2023-04-25T05:33:52;6.30;99.90
48007;DHT22;33771;48.180;11.400;2023-04-25T05:36:18;6.30;99.90
48007;DHT22;33771;48.180;11.400;2023-04-25T05:38:44;6.40;99.90
48007;DHT22;33771;48.180;11.400;2023-04-25T05:41:10;6.40;99.90
48007;DHT22;33771;48.180;11.400;2023-04-25T05:43:36;6.50;99.90
48007;DHT22;33771;48.180;11.400;2023-04-25T05:46:01;6.60;99.90
48007;DHT22;33771;48.180;11.400;2023-04-25T05:48:27;6.60;99.90
48007;DHT22;33771;48.180;11.400;2023-04-25T05:50:52;6.60;99.90
48007;DHT22;33771;48.180;11.400;2023-04-25T05:53:19;6.70;99.90
48007;DHT22;33771;48.180;11.400;2023-04-25T05:55:45;6.80;99.90
48007;DHT22;33771;48.180;11.400;2023-04-25T05:58:10;6.80;99.90
48007;DHT22;33771;48.180;11.400;2023-04-25T06:00:38;6.80;99.90
48007;DHT22;33771;48.180;11.400;2023-04-25T06:03:04;6.70;99.90
48007;DHT22;33771;48.180;11.400;2023-04-25T06:05:29;6.70;99.90
48007;DHT22;33771;48.180;11.400;2023-04-25T06:07:55;6.70;99.90
48007;DHT22;33771;48.180;11.400;2023-04-25T06:10:21;6.60;99.90
48007;DHT22;33771;48.180;11.400;2023-04-25T06:12:49;6.50;99.90
48007;DHT22;33771;48.180;11.400;2023-04-25T06:15:14;6.50;99.90
48007;DHT22;33771;48.180;11.400;2023-04-25T06:17:41;6.50;99.90
48007;DHT22;33771;48.180;11.400;2023-04-25T06:20:07;6.40;99.90
48007;DHT22;33771;48.180;11.400;2023-04-25T06:22:33;6.30;99.90
48007;DHT22;33771;48.180;11.400;2023-04-25T06:24:59;6.30;99.90
48007;DHT22;33771;48.180;11.400;2023-04-25T06:27:25;6.30;99.90
48007;DHT22;33771;48.180;11.400;2023-04-25T06:29:51;6.30;99.90
48007;DHT22;33771;48.180;11.400;2023-04-25T06:32:16;6.30;99.90
48007;DHT22;33771;48.180;11.400;2023-04-25T06:34:43;6.40;99.90
48007;DHT22;33771;48.180;11.400;2023-04-25T06:37:09;6.60;99.90
48007;DHT22;33771;48.180;11.400;2023-04-25T06:39:34;6.90;99.90
48007;DHT22;33771;48.180;11.400;2023-04-25T06:42:01;7.10;99.90
48007;DHT22;33771;48.180;11.400;2023-04-25T06:44:26;7.40;99.90
48007;DHT22;33771;48.180;11.400;2023-04-25T06:46:54;7.70;99.90
48007;DHT22;33771;48.180;11.400;2023-04-25T06:49:20;7.80;99.90
48007;DHT22;33771;48.180;11.400;2023-04-25T06:51:45;7.90;99.90
48007;DHT22;33771;48.180;11.400;2023-04-25T06:54:11;8.10;99.90
48007;DHT22;33771;48.180;11.400;2023-04-25T06:56:36;8.10;99.90
48007;DHT22;33771;48.180;11.400;2023-04-25T06:59:02;8.10;99.90
48007;DHT22;33771;48.180;11.400;2023-04-25T07:01:27;8.20;99.90
48007;DHT22;33771;48.180;11.400;2023-04-25T07:03:53;8.20;99.90
48007;DHT22;33771;48.180;11.400;2023-04-25T07:06:18;8.10;99.90
48007;DHT22;33771;48.180;11.400;2023-04-25T07:08:44;8.20;99.90
48007;DHT22;33771;48.180;11.400;2023-04-25T07:11:10;8.20;99.90
48007;DHT22;33771;48.180;11.400;2023-04-25T07:13:35;8.10;99.90
48007;DHT22;33771;48.180;11.400;2023-04-25T07:16:01;8.10;99.90
48007;DHT22;33771;48.180;11.400;2023-04-25T07:18:27;8.20;99.90
48007;DHT22;33771;48.180;11.400;2023-04-25T07:20:52;8.30;99.90
48007;DHT22;33771;48.180;11.400;2023-04-25T07:23:18;8.40;99.90
48007;DHT22;33771;48.180;11.400;2023-04-25T07:25:44;8.50;99.90
48007;DHT22;33771;48.180;11.400;2023-04-25T07:28:09;8.50;99.90
48007;DHT22;33771;48.180;11.400;2023-04-25T07:30:35;8.60;99.90
48007;DHT22;33771;48.180;11.400;2023-04-25T07:33:00;8.80;99.90
48007;DHT22;33771;48.180;11.400;2023-04-25T07:35:26;8.80;99.90
48007;DHT22;33771;48.180;11.400;2023-04-25T07:37:52;8.80;99.90
48007;DHT22;33771;48.180;11.400;2023-04-25T07:40:17;8.90;99.90
48007;DHT22;33771;48.180;11.400;2023-04-25T07:42:43;8.90;99.90
48007;DHT22;33771;48.180;11.400;2023-04-25T07:45:09;9.00;99.90
48007;DHT22;33771;48.180;11.400;2023-04-25T07:47:35;9.10;99.90
48007;DHT22;33771;48.180;11.400;2023-04-25T07:50:01;9.20;99.90
48007;DHT22;33771;48.180;11.400;2023-04-25T07:52:26;9.30;99.90
48007;DHT22;33771;48.180;11.400;2023-04-25T07:54:52;9.40;99.90
48007;DHT22;33771;48.180;11.400;2023-04-25T07:57:18;9.50;99.90
48007;DHT22;33771;48.180;11.400;2023-04-25T07:59:45;9.80;99.90
48007;DHT22;33771;48.180;11.400;2023-04-25T08:02:10;10.00;99.90
48007;DHT22;33771;48.180;11.400;2023-04-25T08:04:36;10.10;99.90
48007;DHT22;33771;48.180;11.400;2023-04-25T08:07:01;10.30;99.90
48007;DHT22;33771;48.180;11.400;2023-04-25T08:09:27;10.30;99.90
48007;DHT22;33771;48.180;11.400;2023-04-25T08:11:53;10.30;99.90
48007;DHT22;33771;48.180;11.400;2023-04-25T08:14:18;10.30;99.90
48007;DHT22;33771;48.180;11.400;2023-04-25T08:16:44;10.20;99.90
48007;DHT22;33771;48.180;11.400;2023-04-25T08:19:10;10.10;99.90
48007;DHT22;33771;48.180;11.400;2023-04-25T08:21:36;10.10;99.90
48007;DHT22;33771;48.180;11.400;2023-04-25T08:24:01;10.00;99.90
48007;DHT22;33771;48.180;11.400;2023-04-25T08:26:28;9.90;99.90
48007;DHT22;33771;48.180;11.400;2023-04-25T08:28:53;10.00;99.90
48007;DHT22;33771;48.180;11.400;2023-04-25T08:31:19;10.10;99.90
48007;DHT22;33771;48.180;11.400;2023-04-25T08:33:45;10.20;99.90
48007;DHT22;33771;48.180;11.400;2023-04-25T08:36:11;10.30;99.90
48007;DHT22;33771;48.180;11.400;2023-04-25T08:38:36;10.30;99.90
48007;DHT22;33771;48.180;11.400;2023-04-25T08:41:02;10.30;99.90
48007;DHT22;33771;48.180;11.400;2023-04-25T08:43:29;10.60;99.90
48007;DHT22;33771;48.180;11.400;2023-04-25T08:45:59;10.70;99.90
48007;DHT22;33771;48.180;11.400;2023-04-25T08:48:27;10.90;99.90
48007;DHT22;33771;48.180;11.400;2023-04-25T08:50:54;11.10;99.90
48007;DHT22;33771;48.180;11.400;2023-04-25T08:53:26;11.20;99.90
48007;DHT22;33771;48.180;11.400;2023-04-25T08:55:54;11.40;99.90
48007;DHT22;33771;48.180;11.400;2023-04-25T08:58:21;11.50;99.90
48007;DHT22;33771;48.180;11.400;2023-04-25T09:00:47;11.60;99.90
48007;DHT22;33771;48.180;11.400;2023-04-25T09:03:13;11.70;99.90
48007;DHT22;33771;48.180;11.400;2023-04-25T09:05:41;11.70;99.90
48007;DHT22;33771;48.180;11.400;2023-04-25T09:08:06;11.60;99.90
48007;DHT22;33771;48.180;11.400;2023-04-25T09:10:32;11.50;99.90
48007;DHT22;33771;48.180;11.400;2023-04-25T09:13:06;11.50;99.90
48007;DHT22;33771;48.180;11.400;2023-04-25T09:15:32;11.60;99.90
48007;DHT22;33771;48.180;11.400;2023-04-25T09:17:59;11.60;99.90
48007;DHT22;33771;48.180;11.400;2023-04-25T09:20:25;11.80;99.90
48007;DHT22;33771;48.180;11.400;2023-04-25T09:23:04;12.10;99.90
48007;DHT22;33771;48.180;11.400;2023-04-25T09:25:37;12.40;99.90
48007;DHT22;33771;48.180;11.400;2023-04-25T09:28:08;12.40;99.90
48007;DHT22;33771;48.180;11.400;2023-04-25T09:30:35;12.40;99.90
48007;DHT22;33771;48.180;11.400;2023-04-25T09:33:05;12.30;99.90
48007;DHT22;33771;48.180;11.400;2023-04-25T09:35:36;12.40;99.90
48007;DHT22;33771;48.180;11.400;2023-04-25T09:38:08;12.30;99.90
48007;DHT22;33771;48.180;11.400;2023-04-25T09:40:33;12.20;99.90
48007;DHT22;33771;48.180;11.400;2023-04-25T09:42:59;12.20;99.90
48007;DHT22;33771;48.180;11.400;2023-04-25T09:45:25;12.20;99.90
48007;DHT22;33771;48.180;11.400;2023-04-25T09:47:55;12.20;99.90
48007;DHT22;33771;48.180;11.400;2023-04-25T09:50:23;12.00;99.90
48007;DHT22;33771;48.180;11.400;2023-04-25T09:53:10;12.00;99.90
48007;DHT22;33771;48.180;11.400;2023-04-25T09:55:36;12.00;99.90
48007;DHT22;33771;48.180;11.400;2023-04-25T09:58:06;12.30;99.90
48007;DHT22;33771;48.180;11.400;2023-04-25T10:00:34;12.80;99.90
48007;DHT22;33771;48.180;11.400;2023-04-25T10:03:04;13.50;99.90
48007;DHT22;33771;48.180;11.400;2023-04-25T10:05:32;13.80;99.90
48007;DHT22;33771;48.180;11.400;2023-04-25T10:08:02;13.90;99.90
48007;DHT22;33771;48.180;11.400;2023-04-25T10:10:29;13.80;99.90
48007;DHT22;33771;48.180;11.400;2023-04-25T10:12:58;13.60;99.90
48007;DHT22;33771;48.180;11.400;2023-04-25T10:15:24;13.20;99.90
48007;DHT22;33771;48.180;11.400;2023-04-25T10:17:50;12.90;99.90
48007;DHT22;33771;48.180;11.400;2023-04-25T10:20:16;12.70;99.90
48007;DHT22;33771;48.180;11.400;2023-04-25T10:22:43;12.40;99.90
48007;DHT22;33771;48.180;11.400;2023-04-25T10:25:10;12.20;99.90
48007;DHT22;33771;48.180;11.400;2023-04-25T10:27:36;12.00;99.90
48007;DHT22;33771;48.180;11.400;2023-04-25T10:30:09;11.80;99.90
48007;DHT22;33771;48.180;11.400;2023-04-25T10:32:36;11.60;99.90
48007;DHT22;33771;48.180;11.400;2023-04-25T10:35:23;11.50;99.90
48007;DHT22;33771;48.180;11.400;2023-04-25T10:40:30;11.30;99.90
48007;DHT22;33771;48.180;11.400;2023-04-25T10:46:23;11.30;99.90
48007;DHT22;33771;48.180;11.400;2023-04-25T10:48:50;10.90;99.90
48007;DHT22;33771;48.180;11.400;2023-04-25T10:51:33;10.60;99.90
48007;DHT22;33771;48.180;11.400;2023-04-25T10:54:05;10.40;99.90
48007;DHT22;33771;48.180;11.400;2023-04-25T10:56:41;10.10;99.90
48007;DHT22;33771;48.180;11.400;2023-04-25T10:59:14;9.70;99.90
48007;DHT22;33771;48.180;11.400;2023-04-25T11:01:45;9.50;99.90
48007;DHT22;33771;48.180;11.400;2023-04-25T11:04:31;9.30;99.90
48007;DHT22;33771;48.180;11.400;2023-04-25T11:07:07;9.20;99.90
48007;DHT22;33771;48.180;11.400;2023-04-25T11:09:36;9.20;99.90
48007;DHT22;33771;48.180;11.400;2023-04-25T11:12:03;9.20;99.90
48007;DHT22;33771;48.180;11.400;2023-04-25T11:14:29;9.30;99.90
48007;DHT22;33771;48.180;11.400;2023-04-25T11:16:56;9.40;99.90
48007;DHT22;33771;48.180;11.400;2023-04-25T11:19:22;9.50;99.90
48007;DHT22;33771;48.180;11.400;2023-04-25T11:21:48;9.60;99.90
48007;DHT22;33771;48.180;11.400;2023-04-25T11:24:16;9.70;99.90
48007;DHT22;33771;48.180;11.400;2023-04-25T11:26:43;9.90;99.90
48007;DHT22;33771;48.180;11.400;2023-04-25T11:29:09;10.10;99.90
48007;DHT22;33771;48.180;11.400;2023-04-25T11:31:34;10.30;99.90
48007;DHT22;33771;48.180;11.400;2023-04-25T11:34:00;10.50;99.90
48007;DHT22;33771;48.180;11.400;2023-04-25T11:36:26;10.60;99.90
48007;DHT22;33771;48.180;11.400;2023-04-25T11:38:52;10.60;99.90
48007;DHT22;33771;48.180;11.400;2023-04-25T11:41:19;10.40;99.90
48007;DHT22;33771;48.180;11.400;2023-04-25T11:43:45;9.90;99.90
48007;DHT22;33771;48.180;11.400;2023-04-25T11:46:11;9.50;99.90
48007;DHT22;33771;48.180;11.400;2023-04-25T11:48:40;9.10;99.90
48007;DHT22;33771;48.180;11.400;2023-04-25T11:51:06;8.90;99.90
48007;DHT22;33771;48.180;11.400;2023-04-25T11:53:32;8.50;99.90
48007;DHT22;33771;48.180;11.400;2023-04-25T11:55:58;8.40;99.90
48007;DHT22;33771;48.180;11.400;2023-04-25T11:58:23;8.30;99.90
48007;DHT22;33771;48.180;11.400;2023-04-25T12:00:49;8.30;99.90
48007;DHT22;33771;48.180;11.400;2023-04-25T12:03:14;8.40;99.90
48007;DHT22;33771;48.180;11.400;2023-04-25T12:05:40;8.30;99.90
48007;DHT22;33771;48.180;11.400;2023-04-25T12:08:15;8.30;99.90
48007;DHT22;33771;48.180;11.400;2023-04-25T12:10:46;8.40;99.90
48007;DHT22;33771;48.180;11.400;2023-04-25T12:13:26;8.30;99.90
48007;DHT22;33771;48.180;11.400;2023-04-25T12:15:56;8.20;99.90
48007;DHT22;33771;48.180;11.400;2023-04-25T12:18:24;8.20;99.90
48007;DHT22;33771;48.180;11.400;2023-04-25T12:20:53;8.30;99.90
48007;DHT22;33771;48.180;11.400;2023-04-25T12:23:25;8.40;99.90
48007;DHT22;33771;48.180;11.400;2023-04-25T12:25:51;8.40;99.90
48007;DHT22;33771;48.180;11.400;2023-04-25T12:28:22;8.30;99.90
48007;DHT22;33771;48.180;11.400;2023-04-25T12:30:53;8.40;99.90
48007;DHT22;33771;48.180;11.400;2023-04-25T12:33:18;8.40;99.90
48007;DHT22;33771;48.180;11.400;2023-04-25T12:35:44;8.40;99.90
48007;DHT22;33771;48.180;11.400;2023-04-25T12:38:10;8.30;99.90
48007;DHT22;33771;48.180;11.400;2023-04-25T12:40:36;8.50;99.90
48007;DHT22;33771;48.180;11.400;2023-04-25T12:43:01;8.50;99.90
48007;DHT22;33771;48.180;11.400;2023-04-25T12:45:27;8.50;99.90
48007;DHT22;33771;48.180;11.400;2023-04-25T12:47:52;8.50;99.90
48007;DHT22;33771;48.180;11.400;2023-04-25T12:50:18;8.40;99.90
48007;DHT22;33771;48.180;11.400;2023-04-25T12:52:43;8.40;99.90
48007;DHT22;33771;48.180;11.400;2023-04-25T12:55:09;8.40;99.90
48007;DHT22;33771;48.180;11.400;2023-04-25T12:57:35;8.40;99.90
48007;DHT22;33771;48.180;11.400;2023-04-25T13:00:00;8.30;99.90
48007;DHT22;33771;48.180;11.400;2023-04-25T13:02:26;8.30;99.90
48007;DHT22;33771;48.180;11.400;2023-04-25T13:04:51;8.30;99.90
48007;DHT22;33771;48.180;11.400;2023-04-25T13:07:17;8.20;99.90
48007;DHT22;33771;48.180;11.400;2023-04-25T13:09:42;8.10;99.90
48007;DHT22;33771;48.180;11.400;2023-04-25T13:12:08;8.10;99.90
48007;DHT22;33771;48.180;11.400;2023-04-25T13:14:34;8.10;99.90
48007;DHT22;33771;48.180;11.400;2023-04-25T13:16:59;8.10;99.90
48007;DHT22;33771;48.180;11.400;2023-04-25T13:19:25;8.00;99.90
48007;DHT22;33771;48.180;11.400;2023-04-25T13:21:51;8.00;99.90
48007;DHT22;33771;48.180;11.400;2023-04-25T13:24:16;7.90;99.90
48007;DHT22;33771;48.180;11.400;2023-04-25T13:26:43;7.80;99.90
48007;DHT22;33771;48.180;11.400;2023-04-25T13:29:09;7.80;99.90
48007;DHT22;33771;48.180;11.400;2023-04-25T13:31:35;7.80;99.90
48007;DHT22;33771;48.180;11.400;2023-04-25T13:34:00;7.90;99.90
48007;DHT22;33771;48.180;11.400;2023-04-25T13:36:26;7.80;99.90
48007;DHT22;33771;48.180;11.400;2023-04-25T13:38:53;7.90;99.90
48007;DHT22;33771;48.180;11.400;2023-04-25T13:41:18;7.80;99.90
48007;DHT22;33771;48.180;11.400;2023-04-25T13:43:45;7.70;99.90
48007;DHT22;33771;48.180;11.400;2023-04-25T13:46:12;7.60;99.90
48007;DHT22;33771;48.180;11.400;2023-04-25T13:48:39;7.50;99.90
48007;DHT22;33771;48.180;11.400;2023-04-25T13:51:04;7.50;99.90
48007;DHT22;33771;48.180;11.400;2023-04-25T13:53:30;7.40;99.90
48007;DHT22;33771;48.180;11.400;2023-04-25T13:55:56;7.40;99.90
48007;DHT22;33771;48.180;11.400;2023-04-25T13:58:21;7.30;99.90
48007;DHT22;33771;48.180;11.400;2023-04-25T14:00:47;7.40;99.90
48007;DHT22;33771;48.180;11.400;2023-04-25T14:03:13;7.50;99.90
48007;DHT22;33771;48.180;11.400;2023-04-25T14:05:38;7.70;99.90
48007;DHT22;33771;48.180;11.400;2023-04-25T14:08:09;8.10;99.90
48007;DHT22;33771;48.180;11.400;2023-04-25T14:10:35;8.30;99.90
48007;DHT22;33771;48.180;11.400;2023-04-25T14:13:01;8.40;99.90
48007;DHT22;33771;48.180;11.400;2023-04-25T14:15:29;8.50;99.90
48007;DHT22;33771;48.180;11.400;2023-04-25T14:17:54;8.70;99.90
48007;DHT22;33771;48.180;11.400;2023-04-25T14:20:20;8.80;99.90
48007;DHT22;33771;48.180;11.400;2023-04-25T14:22:46;8.70;99.90
48007;DHT22;33771;48.180;11.400;2023-04-25T14:25:12;8.70;99.90
48007;DHT22;33771;48.180;11.400;2023-04-25T14:27:38;8.80;99.90
48007;DHT22;33771;48.180;11.400;2023-04-25T14:30:03;8.90;99.90
48007;DHT22;33771;48.180;11.400;2023-04-25T14:32:30;8.90;99.90
48007;DHT22;33771;48.180;11.400;2023-04-25T14:34:57;8.90;99.90
48007;DHT22;33771;48.180;11.400;2023-04-25T14:37:22;8.90;99.90
48007;DHT22;33771;48.180;11.400;2023-04-25T14:39:48;8.90;99.90
48007;DHT22;33771;48.180;11.400;2023-04-25T14:42:13;9.00;99.90
48007;DHT22;33771;48.180;11.400;2023-04-25T14:44:39;9.00;99.90
48007;DHT22;33771;48.180;11.400;2023-04-25T14:47:05;9.10;99.90
48007;DHT22;33771;48.180;11.400;2023-04-25T14:49:32;9.10;99.90
48007;DHT22;33771;48.180;11.400;2023-04-25T14:51:57;9.00;99.90
48007;DHT22;33771;48.180;11.400;2023-04-25T14:54:23;9.00;99.90
48007;DHT22;33771;48.180;11.400;2023-04-25T14:56:48;9.10;99.90
48007;DHT22;33771;48.180;11.400;2023-04-25T14:59:14;9.10;99.90
48007;DHT22;33771;48.180;11.400;2023-04-25T15:01:39;9.00;99.90
48007;DHT22;33771;48.180;11.400;2023-04-25T15:04:05;8.90;99.90
48007;DHT22;33771;48.180;11.400;2023-04-25T15:06:31;8.90;99.90
48007;DHT22;33771;48.180;11.400;2023-04-25T15:08:56;8.80;99.90
48007;DHT22;33771;48.180;11.400;2023-04-25T15:11:22;8.80;99.90
48007;DHT22;33771;48.180;11.400;2023-04-25T15:13:48;8.70;99.90
48007;DHT22;33771;48.180;11.400;2023-04-25T15:16:13;8.80;99.90
48007;DHT22;33771;48.180;11.400;2023-04-25T15:18:39;9.00;99.90
48007;DHT22;33771;48.180;11.400;2023-04-25T15:21:04;9.30;99.90
48007;DHT22;33771;48.180;11.400;2023-04-25T15:23:30;9.50;99.90
48007;DHT22;33771;48.180;11.400;2023-04-25T15:25:56;9.60;99.90
48007;DHT22;33771;48.180;11.400;2023-04-25T15:28:21;9.70;99.90
48007;DHT22;33771;48.180;11.400;2023-04-25T15:30:47;9.50;99.90